createdAt,value
2022-12-23T00:01:22.810Z,17.27
2022-12-23T00:03:50.013Z,13.60
2022-12-23T00:06:18.030Z,17.75
2022-12-23T00:08:45.338Z,16.30
2022-12-23T00:11:17.792Z,18.92
2022-12-23T00:14:03.835Z,18.05
2022-12-23T00:16:31.258Z,35.95
2022-12-23T00:18:58.443Z,86.25
2022-12-23T00:21:25.524Z,89.15
2022-12-23T00:23:52.765Z,37.63
2022-12-23T00:26:24.337Z,73.28
2022-12-23T00:28:51.592Z,43.95
2022-12-23T00:31:19.253Z,47.75
2022-12-23T00:33:47.962Z,85.18
2022-12-23T00:36:25.773Z,63.90
2022-12-23T00:39:11.381Z,48.72
2022-12-23T00:41:57.104Z,64.32
2022-12-23T00:44:24.596Z,39.08
2022-12-23T00:46:51.965Z,41.30
2022-12-23T00:49:39.789Z,52.17
2022-12-23T00:52:08.355Z,45.65
2022-12-23T00:54:35.849Z,30.63
2022-12-23T00:57:02.935Z,28.00
2022-12-23T00:59:30.161Z,32.28
2022-12-23T01:02:15.946Z,57.60
2022-12-23T01:05:01.577Z,57.58
2022-12-23T01:07:28.686Z,31.48
2022-12-23T01:09:55.881Z,42.95
2022-12-23T01:12:23.979Z,25.45
2022-12-23T01:14:51.035Z,20.65
2022-12-23T01:17:18.977Z,24.23
2022-12-23T01:19:46.135Z,18.48
2022-12-23T01:22:13.212Z,31.95
2022-12-23T01:24:40.252Z,59.65
2022-12-23T01:27:07.340Z,18.50
2022-12-23T01:29:34.480Z,17.85
2022-12-23T01:32:01.646Z,17.98
2022-12-23T01:34:36.098Z,16.70
2022-12-23T01:37:04.098Z,13.30
2022-12-23T01:39:31.234Z,14.15
2022-12-23T01:42:16.936Z,15.88
2022-12-23T01:44:50.325Z,13.55
2022-12-23T01:47:27.667Z,16.73
2022-12-23T01:49:57.756Z,15.10
2022-12-23T01:52:25.158Z,15.02
2022-12-23T01:54:52.444Z,15.60
2022-12-23T01:57:19.617Z,14.55
2022-12-23T02:00:05.338Z,19.02
2022-12-23T02:02:53.882Z,20.45
2022-12-23T02:05:21.957Z,11.82
2022-12-23T02:08:07.492Z,13.98
2022-12-23T02:10:53.290Z,13.80
2022-12-23T02:13:27.356Z,15.80
2022-12-23T02:16:18.300Z,13.55
2022-12-23T02:19:11.651Z,12.93
2022-12-23T02:21:38.731Z,12.48
2022-12-23T02:24:05.924Z,12.50
2022-12-23T02:26:51.600Z,10.65
2022-12-23T02:29:35.437Z,19.95
2022-12-23T02:32:27.414Z,14.68
2022-12-23T02:35:06.717Z,13.52
2022-12-23T02:37:51.863Z,10.52
2022-12-23T02:40:24.994Z,12.18
2022-12-23T02:43:13.105Z,14.07
2022-12-23T02:45:44.284Z,11.07
2022-12-23T02:48:34.680Z,12.45
2022-12-23T02:51:02.458Z,12.50
2022-12-23T02:53:35.306Z,11.93
2022-12-23T02:56:03.761Z,12.15
2022-12-23T02:58:36.647Z,10.15
2022-12-23T03:01:05.222Z,10.20
2022-12-23T03:03:32.576Z,10.38
2022-12-23T03:05:59.778Z,9.32
2022-12-23T03:08:30.136Z,11.25
2022-12-23T03:11:02.207Z,9.77
2022-12-23T03:13:32.450Z,8.88
2022-12-23T03:16:08.398Z,9.55
2022-12-23T03:18:38.301Z,8.90
2022-12-23T03:21:16.248Z,8.32
2022-12-23T03:23:50.414Z,8.45
2022-12-23T03:26:27.201Z,8.10
2022-12-23T03:29:15.973Z,12.00
2022-12-23T03:31:43.208Z,12.27
2022-12-23T03:34:16.836Z,12.82
2022-12-23T03:36:48.942Z,8.52
2022-12-23T03:39:20.860Z,9.63
2022-12-23T03:41:51.691Z,7.65
2022-12-23T03:44:37.968Z,10.32
2022-12-23T03:47:07.568Z,9.80
2022-12-23T03:49:38.133Z,10.13
2022-12-23T03:52:17.168Z,10.68
2022-12-23T03:54:54.827Z,9.90
2022-12-23T03:57:32.008Z,10.85
2022-12-23T03:59:59.156Z,9.38
2022-12-23T04:02:26.355Z,12.50
2022-12-23T04:04:53.612Z,8.55
2022-12-23T04:07:41.355Z,7.65
2022-12-23T04:10:08.965Z,8.90
2022-12-23T04:12:36.768Z,10.32
2022-12-23T04:15:08.976Z,7.80
2022-12-23T04:20:08.094Z,8.20
2022-12-23T04:22:35.235Z,7.65
2022-12-23T04:25:02.237Z,7.45
2022-12-23T04:27:29.379Z,8.07
2022-12-23T04:29:56.495Z,9.75
2022-12-23T04:32:23.665Z,8.40
2022-12-23T04:34:50.715Z,8.18
2022-12-23T04:37:17.905Z,8.07
2022-12-23T04:39:45.042Z,10.88
2022-12-23T04:42:12.153Z,8.60
2022-12-23T04:44:39.224Z,15.05
2022-12-23T04:47:06.317Z,8.13
2022-12-23T04:49:33.453Z,9.13
2022-12-23T04:52:00.580Z,10.32
2022-12-23T04:54:27.792Z,10.90
2022-12-23T04:56:54.861Z,12.80
2022-12-23T04:59:21.981Z,10.35
2022-12-23T05:01:49.834Z,11.02
2022-12-23T05:04:17.139Z,15.13
2022-12-23T05:06:44.340Z,13.40
2022-12-23T05:09:11.623Z,14.30
2022-12-23T05:11:42.348Z,18.98
2022-12-23T05:14:12.720Z,16.15
2022-12-23T05:16:40.278Z,14.15
2022-12-23T05:19:07.385Z,15.35
2022-12-23T05:21:34.534Z,14.57
2022-12-23T05:24:01.630Z,19.33
2022-12-23T05:26:28.819Z,19.35
2022-12-23T05:28:55.985Z,19.58
2022-12-23T05:31:23.113Z,14.70
2022-12-23T05:33:50.429Z,13.77
2022-12-23T05:36:17.537Z,13.38
2022-12-23T05:38:44.659Z,13.57
2022-12-23T05:41:11.699Z,19.65
2022-12-23T05:43:38.858Z,11.48
2022-12-23T05:46:06.105Z,13.23
2022-12-23T05:48:33.463Z,19.17
2022-12-23T05:51:00.651Z,19.02
2022-12-23T05:53:27.791Z,19.75
2022-12-23T05:55:54.976Z,21.05
2022-12-23T05:58:22.135Z,16.42
2022-12-23T06:00:49.252Z,18.45
2022-12-23T06:03:16.558Z,17.60
2022-12-23T06:05:44.252Z,16.98
2022-12-23T06:08:11.385Z,16.92
2022-12-23T06:10:38.581Z,13.68
2022-12-23T06:13:05.728Z,17.98
2022-12-23T06:15:32.775Z,19.30
2022-12-23T06:17:59.820Z,28.45
2022-12-23T06:20:26.987Z,13.25
2022-12-23T06:22:54.329Z,11.90
2022-12-23T06:25:21.494Z,21.65
2022-12-23T06:27:48.751Z,25.60
2022-12-23T06:30:15.908Z,24.20
2022-12-23T06:32:43.011Z,30.77
2022-12-23T06:35:10.168Z,43.90
2022-12-23T06:37:37.356Z,43.72
2022-12-23T06:40:04.649Z,43.30
2022-12-23T06:42:31.822Z,44.33
2022-12-23T06:44:58.896Z,37.30
2022-12-23T06:47:26.112Z,41.83
2022-12-23T06:49:53.378Z,30.17
2022-12-23T06:52:20.652Z,40.30
2022-12-23T06:54:47.832Z,39.10
2022-12-23T06:57:14.863Z,35.63
2022-12-23T06:59:42.074Z,29.67
2022-12-23T07:02:11.392Z,29.85
2022-12-23T07:04:38.785Z,42.60
2022-12-23T07:07:12.443Z,34.05
2022-12-23T07:09:42.446Z,23.45
2022-12-23T07:12:09.638Z,24.77
2022-12-23T07:14:36.745Z,18.42
2022-12-23T07:17:03.804Z,20.90
2022-12-23T07:19:31.045Z,19.33
2022-12-23T07:21:58.342Z,22.45
2022-12-23T07:24:25.553Z,30.05
2022-12-23T07:26:52.737Z,24.30
2022-12-23T07:29:19.959Z,31.48
2022-12-23T07:31:47.160Z,30.90
2022-12-23T07:34:14.252Z,32.17
2022-12-23T07:36:41.454Z,18.95
2022-12-23T07:39:08.697Z,26.42
2022-12-23T07:41:35.917Z,18.13
2022-12-23T07:44:06.941Z,20.38
2022-12-23T07:46:34.175Z,14.88
2022-12-23T07:49:01.316Z,22.73
2022-12-23T07:51:28.552Z,18.70
2022-12-23T07:53:55.601Z,17.80
2022-12-23T07:56:22.745Z,12.63
2022-12-23T07:58:52.692Z,19.30
2022-12-23T08:01:20.126Z,18.75
2022-12-23T08:03:47.806Z,18.02
2022-12-23T08:06:15.911Z,19.42
2022-12-23T08:08:44.402Z,16.67
2022-12-23T08:11:12.162Z,19.58
2022-12-23T08:13:40.505Z,18.42
2022-12-23T08:16:07.981Z,19.17
2022-12-23T08:18:37.094Z,15.38
2022-12-23T08:21:05.890Z,18.70
2022-12-23T08:23:33.497Z,12.18
2022-12-23T08:26:03.566Z,18.33
2022-12-23T08:28:30.819Z,15.15
2022-12-23T08:31:32.304Z,19.00
2022-12-23T08:34:00.177Z,26.02
2022-12-23T08:36:29.269Z,19.83
2022-12-23T08:38:56.944Z,20.35
2022-12-23T08:41:28.404Z,13.88
2022-12-23T08:43:55.516Z,21.08
2022-12-23T08:46:23.059Z,18.20
2022-12-23T08:48:50.338Z,24.58
2022-12-23T08:51:18.324Z,26.30
2022-12-23T08:53:46.194Z,30.98
2022-12-23T08:56:18.561Z,55.67
2022-12-23T08:58:46.553Z,50.38
2022-12-23T09:01:14.706Z,57.47
2022-12-23T09:03:42.051Z,56.80
2022-12-23T09:06:16.624Z,53.00
2022-12-23T09:08:44.353Z,53.95
2022-12-23T09:11:12.451Z,59.50
2022-12-23T09:13:39.671Z,52.67
2022-12-23T09:16:07.352Z,59.75
2022-12-23T09:18:35.057Z,54.85
2022-12-23T09:21:03.866Z,47.13
2022-12-23T09:23:31.459Z,51.92
2022-12-23T09:25:58.833Z,57.20
2022-12-23T09:28:26.133Z,58.90
2022-12-23T09:30:53.524Z,65.45
2022-12-23T09:33:20.587Z,52.38
2022-12-23T09:35:49.162Z,41.60
2022-12-23T09:38:16.463Z,56.05
2022-12-23T09:40:43.682Z,44.75
2022-12-23T09:43:33.887Z,48.75
2022-12-23T09:46:11.814Z,38.03
2022-12-23T09:48:41.445Z,34.80
2022-12-23T09:51:10.660Z,43.95
2022-12-23T09:53:49.780Z,29.75
2022-12-23T09:56:20.196Z,26.92
2022-12-23T09:59:06.177Z,28.60
2022-12-23T10:01:44.431Z,19.83
2022-12-23T10:04:28.089Z,25.65
2022-12-23T10:07:11.988Z,18.98
2022-12-23T10:09:41.430Z,17.80
2022-12-23T10:12:19.622Z,17.75
2022-12-23T10:14:51.075Z,20.92
2022-12-23T10:17:25.247Z,21.92
2022-12-23T10:19:53.825Z,20.80
2022-12-23T10:22:20.832Z,18.27
2022-12-23T10:24:48.298Z,30.25
2022-12-23T10:27:33.975Z,24.30
2022-12-23T10:30:19.906Z,16.17
2022-12-23T10:33:05.733Z,24.55
2022-12-23T10:35:46.035Z,28.85
2022-12-23T10:38:19.300Z,23.60
2022-12-23T10:40:52.331Z,31.15
2022-12-23T10:43:31.445Z,26.42
2022-12-23T10:46:10.789Z,22.42
2022-12-23T10:48:37.828Z,26.88
2022-12-23T10:51:10.392Z,25.90
2022-12-23T10:53:55.620Z,15.73
2022-12-23T10:56:23.111Z,21.70
2022-12-23T10:58:51.998Z,23.73
2022-12-23T11:01:26.619Z,17.27
2022-12-23T11:04:00.992Z,27.95
2022-12-23T11:06:34.839Z,19.27
2022-12-23T11:09:04.256Z,21.73
2022-12-23T11:11:50.246Z,24.85
2022-12-23T11:16:47.015Z,28.17
2022-12-23T11:19:16.126Z,24.00
2022-12-23T11:21:53.745Z,21.83
2022-12-23T11:24:22.467Z,19.83
2022-12-23T11:27:13.198Z,17.05
2022-12-23T11:29:44.042Z,19.45
2022-12-23T11:32:17.491Z,10.93
2022-12-23T11:34:45.931Z,13.05
2022-12-23T11:37:31.747Z,16.25
2022-12-23T11:39:58.948Z,12.80
2022-12-23T11:42:29.677Z,12.10
2022-12-23T11:44:58.631Z,14.93
2022-12-23T11:47:40.433Z,13.05
2022-12-23T11:50:38.130Z,17.10
2022-12-23T11:53:13.433Z,23.13
2022-12-23T11:55:45.501Z,14.73
2022-12-23T11:58:16.969Z,14.48
2022-12-23T12:00:55.336Z,18.38
2022-12-23T12:03:26.148Z,19.52
2022-12-23T12:06:04.037Z,14.50
2022-12-23T12:08:33.255Z,10.55
2022-12-23T12:11:02.560Z,9.65
2022-12-23T12:13:31.171Z,15.43
2022-12-23T12:16:14.249Z,11.27
2022-12-23T12:18:42.831Z,15.80
2022-12-23T12:21:13.309Z,12.35
2022-12-23T12:23:40.481Z,16.05
2022-12-23T12:26:13.806Z,13.13
2022-12-23T12:28:42.626Z,9.02
2022-12-23T12:31:24.332Z,11.07
2022-12-23T12:33:54.875Z,18.67
2022-12-23T12:36:22.279Z,12.32
2022-12-23T12:38:50.055Z,10.32
2022-12-23T12:41:29.215Z,14.27
2022-12-23T12:44:01.232Z,11.70
2022-12-23T12:46:33.096Z,11.43
2022-12-23T12:49:11.885Z,12.63
2022-12-23T12:52:05.281Z,16.70
2022-12-23T12:54:35.588Z,14.75
2022-12-23T12:57:04.219Z,15.68
2022-12-23T12:59:35.747Z,14.43
2022-12-23T13:02:03.012Z,16.70
2022-12-23T13:04:42.525Z,16.90
2022-12-23T13:07:29.338Z,17.30
2022-12-23T13:10:00.439Z,14.65
2022-12-23T13:12:46.520Z,20.38
2022-12-23T13:18:06.824Z,16.05
2022-12-23T13:20:43.109Z,15.93
2022-12-23T13:23:42.888Z,16.63
2022-12-23T13:28:36.903Z,16.60
2022-12-23T13:31:17.747Z,20.10
2022-12-23T13:34:00.088Z,16.65
2022-12-23T13:36:27.234Z,15.90
2022-12-23T13:38:57.439Z,25.55
2022-12-23T13:41:35.976Z,20.65
2022-12-23T13:44:08.107Z,16.92
2022-12-23T13:46:47.760Z,14.82
2022-12-23T13:49:21.587Z,18.23
2022-12-23T13:51:56.003Z,16.85
2022-12-23T13:54:42.170Z,20.55
2022-12-23T13:57:27.763Z,14.50
2022-12-23T14:00:05.971Z,15.73
2022-12-23T14:02:42.323Z,17.73
2022-12-23T14:05:28.283Z,17.23
2022-12-23T14:07:55.507Z,17.58
2022-12-23T14:10:24.548Z,15.07
2022-12-23T14:12:53.318Z,14.48
2022-12-23T14:15:42.985Z,15.60
2022-12-23T14:18:10.040Z,10.05
2022-12-23T14:21:00.992Z,14.63
2022-12-23T14:23:37.218Z,12.18
2022-12-23T14:26:17.009Z,16.20
2022-12-23T14:29:02.455Z,16.70
2022-12-23T14:31:33.861Z,14.30
2022-12-23T14:34:04.954Z,16.33
2022-12-23T14:36:32.255Z,14.63
2022-12-23T14:39:12.727Z,15.60
2022-12-23T14:41:49.182Z,14.75
2022-12-23T14:44:43.917Z,21.50
2022-12-23T14:47:29.305Z,21.05
2022-12-23T14:49:56.530Z,21.25
2022-12-23T14:52:39.311Z,15.10
2022-12-23T14:55:32.366Z,20.55
2022-12-23T14:58:35.604Z,20.73
2022-12-23T15:01:04.825Z,24.45
2022-12-23T15:03:40.525Z,20.40
2022-12-23T15:08:39.596Z,29.95
2022-12-23T15:11:09.054Z,25.27
2022-12-23T15:13:36.878Z,31.10
2022-12-23T15:16:04.139Z,29.55
2022-12-23T15:18:31.350Z,25.38
2022-12-23T15:20:59.582Z,28.90
2022-12-23T15:23:26.763Z,24.65
2022-12-23T15:25:56.443Z,33.53
2022-12-23T15:28:28.252Z,31.80
2022-12-23T15:30:56.869Z,29.95
2022-12-23T15:34:01.465Z,37.67
2022-12-23T15:36:12.889Z,35.92
2022-12-23T15:38:40.065Z,34.58
2022-12-23T15:41:14.875Z,37.03
2022-12-23T15:43:42.924Z,39.87
2022-12-23T15:46:28.615Z,37.03
2022-12-23T15:48:57.210Z,48.72
2022-12-23T15:51:42.918Z,48.00
2022-12-23T15:54:19.673Z,49.28
2022-12-23T15:56:49.017Z,45.78
2022-12-23T15:59:27.865Z,48.83
2022-12-23T16:01:55.587Z,56.75
2022-12-23T16:04:25.970Z,48.90
2022-12-23T16:06:53.847Z,43.20
2022-12-23T16:09:20.886Z,48.47
2022-12-23T16:11:53.521Z,48.20
2022-12-23T16:14:21.284Z,43.67
2022-12-23T16:16:48.535Z,53.20
2022-12-23T16:19:34.239Z,64.97
2022-12-23T16:22:04.867Z,78.57
2022-12-23T16:24:32.004Z,58.08
2022-12-23T16:27:01.944Z,72.78
2022-12-23T16:29:29.167Z,58.40
2022-12-23T16:32:01.527Z,63.55
2022-12-23T16:34:31.063Z,63.67
2022-12-23T16:36:58.236Z,56.03
2022-12-23T16:39:25.371Z,59.75
2022-12-23T16:41:52.543Z,68.75
2022-12-23T16:44:19.942Z,68.30
2022-12-23T16:46:48.950Z,59.97
2022-12-23T16:49:20.649Z,63.65
2022-12-23T16:51:48.175Z,53.05
2022-12-23T16:54:16.704Z,62.28
2022-12-23T16:56:43.940Z,60.70
2022-12-23T16:59:11.131Z,72.65
2022-12-23T17:01:43.150Z,61.67
2022-12-23T17:04:10.320Z,85.90
2022-12-23T17:06:38.018Z,76.72
2022-12-23T17:09:05.948Z,70.57
2022-12-23T17:11:41.338Z,92.25
2022-12-23T17:14:15.686Z,106.60
2022-12-23T17:16:43.640Z,111.70
2022-12-23T17:19:11.734Z,105.28
2022-12-23T17:21:39.400Z,86.97
2022-12-23T17:24:12.222Z,94.75
2022-12-23T17:26:39.569Z,99.10
2022-12-23T17:29:07.016Z,92.72
2022-12-23T17:31:34.860Z,87.97
2022-12-23T17:34:02.334Z,75.32
2022-12-23T17:36:29.838Z,69.55
2022-12-23T17:38:57.095Z,73.90
2022-12-23T17:41:29.127Z,56.33
2022-12-23T17:43:56.302Z,59.65
2022-12-23T17:46:23.865Z,56.60
2022-12-23T17:48:51.165Z,57.85
2022-12-23T17:51:19.733Z,58.90
2022-12-23T17:53:50.293Z,65.47
2022-12-23T17:56:20.057Z,68.53
2022-12-23T17:58:48.041Z,68.03
2022-12-23T18:01:25.502Z,54.03
2022-12-23T18:03:53.121Z,44.72
2022-12-23T18:06:21.093Z,53.33
2022-12-23T18:08:48.295Z,55.60
2022-12-23T18:11:34.004Z,46.60
2022-12-23T18:14:02.188Z,48.05
2022-12-23T18:16:29.423Z,42.03
2022-12-23T18:18:56.608Z,39.53
2022-12-23T18:21:27.923Z,31.02
2022-12-23T18:23:56.915Z,32.30
2022-12-23T18:26:24.176Z,29.98
2022-12-23T18:28:53.048Z,32.95
2022-12-23T18:31:23.141Z,30.98
2022-12-23T18:33:51.151Z,31.67
2022-12-23T18:36:26.433Z,29.67
2022-12-23T18:38:53.835Z,40.88
2022-12-23T18:41:21.620Z,39.47
2022-12-23T18:43:48.981Z,35.03
2022-12-23T18:46:16.220Z,39.22
2022-12-23T18:48:43.539Z,42.47
2022-12-23T18:51:13.992Z,45.50
2022-12-23T18:53:41.950Z,41.08
2022-12-23T18:56:12.456Z,36.55
2022-12-23T18:58:39.686Z,44.65
2022-12-23T19:01:10.590Z,37.75
2022-12-23T19:03:37.731Z,41.40
2022-12-23T19:06:06.894Z,42.05
2022-12-23T19:08:34.792Z,48.15
2022-12-23T19:11:02.337Z,32.10
2022-12-23T19:13:29.520Z,30.98
2022-12-23T19:15:58.116Z,29.80
2022-12-23T19:18:25.189Z,30.33
2022-12-23T19:20:52.364Z,29.75
2022-12-23T19:23:19.588Z,36.40
2022-12-23T19:25:54.533Z,35.17
2022-12-23T19:28:23.015Z,32.58
2022-12-23T19:30:50.238Z,29.15
2022-12-23T19:33:17.495Z,54.20
2022-12-23T19:35:44.640Z,33.97
2022-12-23T19:38:12.751Z,35.30
2022-12-23T19:40:40.387Z,50.20
2022-12-23T19:43:07.644Z,44.35
2022-12-23T19:45:34.819Z,46.25
2022-12-23T19:48:01.908Z,30.67
2022-12-23T19:50:28.956Z,37.80
2022-12-23T19:52:56.701Z,25.83
2022-12-23T19:55:24.107Z,30.40
2022-12-23T19:57:52.453Z,27.35
2022-12-23T20:00:19.807Z,30.75
2022-12-23T20:02:47.100Z,29.08
2022-12-23T20:05:14.249Z,31.05
2022-12-23T20:07:41.573Z,24.17
2022-12-23T20:10:09.006Z,28.98
2022-12-23T20:12:36.321Z,23.50
2022-12-23T20:15:03.795Z,20.08
2022-12-23T20:17:30.800Z,21.63
2022-12-23T20:19:57.938Z,22.30
2022-12-23T20:22:25.043Z,25.20
2022-12-23T20:24:52.298Z,26.75
2022-12-23T20:27:25.981Z,27.55
2022-12-23T20:29:54.844Z,25.67
2022-12-23T20:32:22.177Z,24.30
2022-12-23T20:34:50.363Z,31.13
2022-12-23T20:37:17.918Z,29.60
2022-12-23T20:39:44.987Z,30.40
2022-12-23T20:42:12.118Z,31.80
2022-12-23T20:44:39.260Z,28.63
2022-12-23T20:47:06.540Z,26.38
2022-12-23T20:49:33.772Z,31.05
2022-12-23T20:52:00.956Z,25.13
2022-12-23T20:54:33.192Z,22.50
2022-12-23T20:57:01.612Z,22.88
2022-12-23T20:59:28.781Z,24.35
2022-12-23T21:01:56.776Z,29.17
2022-12-23T21:04:24.053Z,30.42
2022-12-23T21:06:51.140Z,25.25
2022-12-23T21:09:18.363Z,26.85
2022-12-23T21:11:46.420Z,26.02
2022-12-23T21:14:14.726Z,23.23
2022-12-23T21:16:42.084Z,23.50
2022-12-23T21:19:13.691Z,23.63
2022-12-23T21:21:40.778Z,19.85
2022-12-23T21:24:08.222Z,24.65
2022-12-23T21:26:35.614Z,25.08
2022-12-23T21:29:04.239Z,21.75
2022-12-23T21:31:33.332Z,22.25
2022-12-23T21:34:01.224Z,26.45
2022-12-23T21:36:31.263Z,30.98
2022-12-23T21:38:58.971Z,24.00
2022-12-23T21:41:27.980Z,23.67
2022-12-23T21:43:56.510Z,22.02
2022-12-23T21:46:24.093Z,24.00
2022-12-23T21:48:51.532Z,25.88
2022-12-23T21:51:20.503Z,19.73
2022-12-23T21:53:50.498Z,36.65
2022-12-23T21:56:19.999Z,20.10
2022-12-23T21:58:47.453Z,19.05
2022-12-23T22:01:18.795Z,21.58
2022-12-23T22:03:47.382Z,31.67
2022-12-23T22:06:24.519Z,18.02
2022-12-23T22:08:52.147Z,18.33
2022-12-23T22:11:20.459Z,20.40
2022-12-23T22:13:47.746Z,29.15
2022-12-23T22:16:16.744Z,35.67
2022-12-23T22:18:44.189Z,34.00
2022-12-23T22:21:12.889Z,52.60
2022-12-23T22:23:40.138Z,71.65
2022-12-23T22:26:07.970Z,49.03
2022-12-23T22:28:35.996Z,50.65
2022-12-23T22:31:03.937Z,64.97
2022-12-23T22:33:31.781Z,57.92
2022-12-23T22:35:58.904Z,51.85
2022-12-23T22:38:26.206Z,39.92
2022-12-23T22:40:53.868Z,41.20
2022-12-23T22:43:21.194Z,31.25
2022-12-23T22:45:55.105Z,29.70
2022-12-23T22:48:22.549Z,30.05
2022-12-23T22:50:49.804Z,32.20
2022-12-23T22:53:17.130Z,26.40
2022-12-23T22:55:44.460Z,29.77
2022-12-23T22:58:11.542Z,29.48
2022-12-23T23:00:38.738Z,29.52
2022-12-23T23:03:05.903Z,27.20
2022-12-23T23:05:33.143Z,27.83
2022-12-23T23:08:00.204Z,24.23
2022-12-23T23:10:27.476Z,25.40
2022-12-23T23:12:54.639Z,31.70
2022-12-23T23:15:21.757Z,32.45
2022-12-23T23:17:48.840Z,26.10
2022-12-23T23:20:15.980Z,25.27
2022-12-23T23:22:44.771Z,30.75
2022-12-23T23:25:11.996Z,29.70
2022-12-23T23:27:39.046Z,24.27
2022-12-23T23:30:06.636Z,27.83
2022-12-23T23:32:33.952Z,15.60
2022-12-23T23:35:05.554Z,19.27
2022-12-23T23:37:38.702Z,22.17
2022-12-23T23:40:06.711Z,19.42
2022-12-23T23:42:33.908Z,16.63
2022-12-23T23:45:01.090Z,21.88
2022-12-23T23:47:28.215Z,13.40
2022-12-23T23:49:55.414Z,18.60
2022-12-23T23:52:23.227Z,13.35
2022-12-23T23:54:50.343Z,20.63
2022-12-23T23:57:17.477Z,17.25
2022-12-23T23:59:44.746Z,14.40
